Canoe, Alabama
Current Conditions -  °F | °C
As of 7:39 AM on Sunday 23 Nov 2014 (Local Time) from KGZH Reporting Station
Haze Haze  
Wind Chill: 66°   Ceiling: 400
Heat Index: 66°   Visibility: 5mi
Dew Point: 64°   Wind: 12mph
Humidity: 93%   Direction: 110°ESE
Pressure: 29.82"   Gusts: NA
Location:  31.1324°N, 87.4695°W
Report Text: KGZH 231339Z AUTO 11010KT 5SM BR OVC004 19/18 A2982 RMK AO2 RAB26E35 P0000 T01890178
Loading
Personal Weather Stations






























Interactive Weather Map New forecast layout! Learn more

10-Day Weather Forecast

Advertisements
Track Severe Weather on mobile